Time;durP1;ratioP1;P1;durP2;ratioP2;P2;SDS_P1;SDS_P2;PMS_P1;PMS_P2;Temp;Humidity;BMP_temperature;BMP_pressure;BME280_temperature;BME280_humidity;BME280_pressure;Samples;Min_cycle;Max_cycle;Signal;HPM_P1;HPM_P2
2022/09/02 00:00:21;;;;;;;;;;;;;;;;;;5058471;28;19978;-78
2022/09/02 00:02:48;;;;;;;;;;;;;;;;;;5075855;28;20042;-77
2022/09/02 00:05:15;;;;;;;;;;;;;;;;;;5078695;28;19975;-77
2022/09/02 00:07:41;;;;;;;;;;;;;;;;;;5074800;28;20356;-78
2022/09/02 00:10:08;;;;;;;;;;;;;;;;;;5074224;28;19964;-78
2022/09/02 00:12:35;;;;;;;;;;;;;;;;;;5074720;28;19968;-77
2022/09/02 00:15:01;;;;;;;;;;;;;;;;;;5074431;28;20019;-78
2022/09/02 00:17:29;;;;;;;;;;;;;;;;;;5074058;28;20382;-78
2022/09/02 00:19:55;;;;;;;;;;;;;;;;;;5073430;28;20118;-76
2022/09/02 00:22:22;;;;;;;;;;;;;;;;;;5073299;28;19964;-78
2022/09/02 00:24:49;;;;;;;;;;;;;;;;;;5076393;28;19979;-79
2022/09/02 00:27:16;;;;;;;;;;;;;;;;;;5076405;28;19925;-78
2022/09/02 00:29:42;;;;;;;;;;;;;;;;;;5076126;28;19928;-78
2022/09/02 00:32:09;;;;;;;;;;;;;;;;;;5076688;28;19972;-79
2022/09/02 00:34:36;;;;;;;;;;;;;;;;;;5076185;28;19978;-78
2022/09/02 00:37:03;;;;;;;;;;;;;;;;;;5087160;22;19960;-78
2022/09/02 00:39:30;;;;;;;;;;;;;;;;;;5092002;28;20003;-78
2022/09/02 00:41:56;;;;;;;;;;;;;;;;;;5092323;28;19935;-78
2022/09/02 00:44:22;;;;;;;;;;;;;;;;;;5097998;28;19940;-78
2022/09/02 00:46:49;;;;;;;;;;;;;;;;;;5115898;28;19935;-78
2022/09/02 00:49:17;;;;;;;;;;;;;;;;;;5102962;28;19959;-75
2022/09/02 00:51:48;;;;;;;;;;;;;;;;;;5091797;28;20019;-75
2022/09/02 00:54:15;;;;;;;;;;;;;;;;;;5091803;28;19970;-78
2022/09/02 00:56:43;;;;;;;;;;;;;;;;;;5091903;28;19980;-76
2022/09/02 00:59:10;;;;;;;;;;;;;;;;;;5094503;28;20011;-75
2022/09/02 01:01:37;;;;;;;;;;;;;;;;;;5087427;28;20016;-76
2022/09/02 01:04:06;;;;;;;;;;;;;;;;;;5077681;28;19963;-77
2022/09/02 01:06:33;;;;;;;;;;;;;;;;;;5077547;28;19963;-77
2022/09/02 01:09:03;;;;;;;;;;;;;;;;;;5076080;28;19931;-76
2022/09/02 01:11:31;;;;;;;;;;;;;;;;;;5075212;28;19970;-75
2022/09/02 01:13:58;;;;;;;;;;;;;;;;;;5075072;28;19924;-76
2022/09/02 01:16:26;;;;;;;;;;;;;;;;;;5075398;28;19925;-78
2022/09/02 01:18:57;;;;;;;;;;;;;;;;;;5077313;28;20018;-78
2022/09/02 01:21:24;;;;;;;;;;;;;;;;;;5077231;28;20420;-77
2022/09/02 01:23:52;;;;;;;;;;;;;;;;;;5077685;28;19975;-77
2022/09/02 01:26:19;;;;;;;;;;;;;;;;;;5075614;28;20379;-75
2022/09/02 01:28:46;;;;;;;;;;;;;;;;;;5074930;28;19925;-76
2022/09/02 01:31:12;;;;;;;;;;;;;;;;;;5074584;28;20301;-75
2022/09/02 01:33:39;;;;;;;;;;;;;;;;;;5074667;28;19975;-74
2022/09/02 01:36:07;;;;;;;;;;;;;;;;;;5075003;28;19960;-77
2022/09/02 01:38:33;;;;;;;;;;;;;;;;;;5075088;28;20357;-76
2022/09/02 01:41:01;;;;;;;;;;;;;;;;;;5074561;28;19925;-77
2022/09/02 01:43:28;;;;;;;;;;;;;;;;;;5075194;28;19931;-78
2022/09/02 01:45:56;;;;;;;;;;;;;;;;;;5077285;28;19932;-77
2022/09/02 01:48:23;;;;;;;;;;;;;;;;;;5076379;28;19930;-76
2022/09/02 01:50:51;;;;;;;;;;;;;;;;;;5074238;28;19935;-76
2022/09/02 01:53:18;;;;;;;;;;;;;;;;;;5076427;28;20027;-77
2022/09/02 01:55:44;;;;;;;;;;;;;;;;;;5077488;28;19924;-77
2022/09/02 01:58:12;;;;;;;;;;;;;;;;;;5081520;28;19931;-76
2022/09/02 02:00:39;;;;;;;;;;;;;;;;;;5080841;28;19963;-77
2022/09/02 02:03:05;;;;;;;;;;;;;;;;;;5077118;28;19933;-76
2022/09/02 02:05:32;;;;;;;;;;;;;;;;;;5081514;28;19963;-77
2022/09/02 02:07:59;;;;;;;;;;;;;;;;;;5078739;28;20058;-78
2022/09/02 02:10:26;;;;;;;;;;;;;;;;;;5075774;28;20137;-76
2022/09/02 02:12:52;;;;;;;;;;;;;;;;;;5074628;28;20007;-76
2022/09/02 02:15:20;;;;;;;;;;;;;;;;;;5074330;28;19924;-76
2022/09/02 02:17:47;;;;;;;;;;;;;;;;;;5074106;28;20272;-76
2022/09/02 02:20:14;;;;;;;;;;;;;;;;;;5073390;28;19963;-77
2022/09/02 02:22:41;;;;;;;;;;;;;;;;;;5075579;28;20008;-76
2022/09/02 02:25:08;;;;;;;;;;;;;;;;;;5073807;28;20014;-77
2022/09/02 02:27:34;;;;;;;;;;;;;;;;;;5073985;28;20011;-76
2022/09/02 02:30:01;;;;;;;;;;;;;;;;;;5073363;28;20015;-77
2022/09/02 02:32:31;;;;;;;;;;;;;;;;;;5073935;28;19978;-76
2022/09/02 02:34:58;;;;;;;;;;;;;;;;;;5074333;28;20015;-75
2022/09/02 02:37:24;;;;;;;;;;;;;;;;;;5073364;28;19924;-77
2022/09/02 02:39:50;;;;;;;;;;;;;;;;;;5073115;28;19991;-77
2022/09/02 02:42:17;;;;;;;;;;;;;;;;;;5073265;28;20350;-77
2022/09/02 02:44:43;;;;;;;;;;;;;;;;;;5073551;28;19928;-76
2022/09/02 02:47:10;;;;;;;;;;;;;;;;;;5073505;28;20330;-76
2022/09/02 02:49:38;;;;;;;;;;;;;;;;;;5073164;28;19964;-77
2022/09/02 02:52:05;;;;;;;;;;;;;;;;;;5073210;28;20011;-76
2022/09/02 02:54:32;;;;;;;;;;;;;;;;;;5073920;28;19924;-76
2022/09/02 02:56:58;;;;;;;;;;;;;;;;;;5073010;28;19925;-76
2022/09/02 02:59:25;;;;;;;;;;;;;;;;;;5072843;28;19925;-77
2022/09/02 03:01:52;;;;;;;;;;;;;;;;;;5083480;28;19985;-75
2022/09/02 03:04:18;;;;;;;;;;;;;;;;;;5093921;28;19967;-77
2022/09/02 03:06:46;;;;;;;;;;;;;;;;;;5093638;28;20026;-76
2022/09/02 03:09:13;;;;;;;;;;;;;;;;;;5093559;28;19935;-76
2022/09/02 03:11:39;;;;;;;;;;;;;;;;;;5093120;28;20007;-77
2022/09/02 03:14:06;;;;;;;;;;;;;;;;;;5093207;28;19978;-77
2022/09/02 03:16:33;;;;;;;;;;;;;;;;;;5093306;28;19924;-76
2022/09/02 03:19:00;;;;;;;;;;;;;;;;;;5093064;28;20006;-77
2022/09/02 03:21:27;;;;;;;;;;;;;;;;;;5094067;28;19971;-78
2022/09/02 03:23:55;;;;;;;;;;;;;;;;;;5093315;28;19931;-78
2022/09/02 03:26:23;;;;;;;;;;;;;;;;;;5092796;28;20361;-77
2022/09/02 03:28:50;;;;;;;;;;;;;;;;;;5092863;28;19931;-77
2022/09/02 03:31:20;;;;;;;;;;;;;;;;;;5091929;28;20281;-78
2022/09/02 03:33:46;;;;;;;;;;;;;;;;;;5093612;28;19975;-77
2022/09/02 03:36:20;;;;;;;;;;;;;;;;;;5092810;28;19928;-76
2022/09/02 03:38:46;;;;;;;;;;;;;;;;;;5092271;28;19931;-77
2022/09/02 03:41:14;;;;;;;;;;;;;;;;;;5092372;28;20398;-76
2022/09/02 03:43:41;;;;;;;;;;;;;;;;;;5092795;28;20015;-77
2022/09/02 03:46:08;;;;;;;;;;;;;;;;;;5092684;28;20007;-76
2022/09/02 03:48:34;;;;;;;;;;;;;;;;;;5094157;28;20365;-76
2022/09/02 03:51:01;;;;;;;;;;;;;;;;;;5093498;28;19985;-76
2022/09/02 03:53:28;;;;;;;;;;;;;;;;;;5093819;28;20389;-76
2022/09/02 03:55:54;;;;;;;;;;;;;;;;;;5092510;28;19970;-76
2022/09/02 03:58:22;;;;;;;;;;;;;;;;;;5093644;28;20429;-77
2022/09/02 04:00:50;;;;;;;;;;;;;;;;;;5093702;28;19936;-77
2022/09/02 04:03:16;;;;;;;;;;;;;;;;;;5073382;28;19925;-76
2022/09/02 04:05:45;;;;;;;;;;;;;;;;;;5071920;28;19930;-76
2022/09/02 04:08:12;;;;;;;;;;;;;;;;;;5072176;28;20003;-75
2022/09/02 04:10:38;;;;;;;;;;;;;;;;;;5071986;28;20379;-77
2022/09/02 04:13:05;;;;;;;;;;;;;;;;;;5075211;28;19990;-78
2022/09/02 04:15:33;;;;;;;;;;;;;;;;;;5075356;28;19973;-78
2022/09/02 04:17:59;;;;;;;;;;;;;;;;;;5075317;28;19937;-78
2022/09/02 04:20:26;;;;;;;;;;;;;;;;;;5074619;28;20462;-77
2022/09/02 04:22:52;;;;;;;;;;;;;;;;;;5073926;28;20023;-77
2022/09/02 04:25:19;;;;;;;;;;;;;;;;;;5072240;28;20012;-77
2022/09/02 04:27:45;;;;;;;;;;;;;;;;;;5072001;28;20338;-77
2022/09/02 04:30:15;;;;;;;;;;;;;;;;;;5071688;28;20530;-76
2022/09/02 04:32:43;;;;;;;;;;;;;;;;;;5072414;28;19928;-77
2022/09/02 04:35:09;;;;;;;;;;;;;;;;;;5076494;28;19924;-77
2022/09/02 04:37:36;;;;;;;;;;;;;;;;;;5076030;28;19960;-77
2022/09/02 04:40:02;;;;;;;;;;;;;;;;;;5080050;28;19975;-79
2022/09/02 04:42:29;;;;;;;;;;;;;;;;;;5081265;28;19925;-78
2022/09/02 04:44:56;;;;;;;;;;;;;;;;;;5080067;28;19971;-79
2022/09/02 04:47:23;;;;;;;;;;;;;;;;;;5079967;28;19932;-78
2022/09/02 04:49:52;;;;;;;;;;;;;;;;;;5079305;28;19964;-78
2022/09/02 04:52:19;;;;;;;;;;;;;;;;;;5079408;28;20003;-79
2022/09/02 04:54:46;;;;;;;;;;;;;;;;;;5079881;28;19940;-78
2022/09/02 04:57:12;;;;;;;;;;;;;;;;;;5079553;28;19963;-79
2022/09/02 04:59:39;;;;;;;;;;;;;;;;;;5079588;28;19924;-79
2022/09/02 05:02:05;;;;;;;;;;;;;;;;;;5092029;28;19971;-78
2022/09/02 05:04:32;;;;;;;;;;;;;;;;;;5099986;28;20011;-78
2022/09/02 05:07:01;;;;;;;;;;;;;;;;;;5100480;28;19963;-79
2022/09/02 05:09:27;;;;;;;;;;;;;;;;;;5100535;28;20294;-78
2022/09/02 05:11:56;;;;;;;;;;;;;;;;;;5100264;28;19971;-78
2022/09/02 05:14:23;;;;;;;;;;;;;;;;;;5096277;28;19931;-77
2022/09/02 05:16:52;;;;;;;;;;;;;;;;;;5097859;28;19928;-77
2022/09/02 05:19:20;;;;;;;;;;;;;;;;;;5100949;28;19924;-76
2022/09/02 05:21:47;;;;;;;;;;;;;;;;;;5095446;28;19924;-76
2022/09/02 05:24:15;;;;;;;;;;;;;;;;;;5095614;28;19967;-77
2022/09/02 05:26:43;;;;;;;;;;;;;;;;;;5095176;28;20007;-77
2022/09/02 05:29:10;;;;;;;;;;;;;;;;;;5094647;28;20292;-77
2022/09/02 05:31:37;;;;;;;;;;;;;;;;;;5095232;28;19967;-78
2022/09/02 05:34:04;;;;;;;;;;;;;;;;;;5095321;28;20019;-77
2022/09/02 05:36:31;;;;;;;;;;;;;;;;;;5097456;28;19975;-77
2022/09/02 05:38:57;;;;;;;;;;;;;;;;;;5094842;28;19924;-77
2022/09/02 05:41:26;;;;;;;;;;;;;;;;;;5094667;28;19960;-78
2022/09/02 05:43:53;;;;;;;;;;;;;;;;;;5095454;28;19975;-78
2022/09/02 05:46:22;;;;;;;;;;;;;;;;;;5094229;28;19963;-77
2022/09/02 05:49:07;;;;;;;;;;;;;;;;;;5096051;28;19924;-76
2022/09/02 05:51:39;;;;;;;;;;;;;;;;;;5097381;28;19932;-78
2022/09/02 05:54:06;;;;;;;;;;;;;;;;;;5097768;28;19963;-78
2022/09/02 05:56:34;;;;;;;;;;;;;;;;;;5095343;28;19982;-76
2022/09/02 05:59:01;;;;;;;;;;;;;;;;;;5095447;28;20294;-78
2022/09/02 06:01:28;;;;;;;;;;;;;;;;;;5094863;28;20014;-77
2022/09/02 06:03:56;;;;;;;;;;;;;;;;;;5095011;28;19924;-77
2022/09/02 06:06:23;;;;;;;;;;;;;;;;;;5099334;28;20459;-79
2022/09/02 06:08:49;;;;;;;;;;;;;;;;;;5100389;28;19924;-79
2022/09/02 06:11:16;;;;;;;;;;;;;;;;;;5099568;28;19983;-78
2022/09/02 06:13:44;;;;;;;;;;;;;;;;;;5098704;28;19983;-79
2022/09/02 06:16:13;;;;;;;;;;;;;;;;;;5099683;28;19924;-79
2022/09/02 06:18:42;;;;;;;;;;;;;;;;;;5101802;28;19924;-79
2022/09/02 06:21:09;;;;;;;;;;;;;;;;;;5102876;28;19955;-77
2022/09/02 06:23:37;;;;;;;;;;;;;;;;;;5103138;28;19935;-79
2022/09/02 06:26:04;;;;;;;;;;;;;;;;;;5097374;28;19930;-76
2022/09/02 06:28:31;;;;;;;;;;;;;;;;;;5096398;28;19924;-77
2022/09/02 06:30:59;;;;;;;;;;;;;;;;;;5094360;28;19924;-76
2022/09/02 06:33:25;;;;;;;;;;;;;;;;;;5097351;28;19967;-76
2022/09/02 06:35:52;;;;;;;;;;;;;;;;;;5095146;28;19967;-77
2022/09/02 06:38:19;;;;;;;;;;;;;;;;;;5190975;22;19959;-63
2022/09/02 06:40:47;;;;;;;;;;;;;;;;;;5093619;28;19928;-63
2022/09/02 06:43:14;;;;;;;;;;;;;;;;;;5093787;28;19931;-62
2022/09/02 06:45:41;;;;;;;;;;;;;;;;;;5093844;28;19927;-63
2022/09/02 06:48:09;;;;;;;;;;;;;;;;;;5093763;28;19931;-62
2022/09/02 06:50:38;;;;;;;;;;;;;;;;;;5093639;28;19931;-63
2022/09/02 06:53:07;;;;;;;;;;;;;;;;;;5093510;28;19924;-63
2022/09/02 06:55:34;;;;;;;;;;;;;;;;;;5094168;28;20353;-63
2022/09/02 06:58:01;;;;;;;;;;;;;;;;;;5093703;28;19928;-63
2022/09/02 07:00:28;;;;;;;;;;;;;;;;;;5093346;28;19924;-63
2022/09/02 07:05:36;;;;;;;;;;;;;;;;;;5092860;28;20322;-63
2022/09/02 07:08:03;;;;;;;;;;;;;;;;;;5093354;28;20391;-63
2022/09/02 07:10:30;;;;;;;;;;;;;;;;;;5093226;28;19924;-63
2022/09/02 07:12:57;;;;;;;;;;;;;;;;;;5093324;28;19971;-63
2022/09/02 07:15:24;;;;;;;;;;;;;;;;;;5093139;28;19924;-63
2022/09/02 07:17:51;;;;;;;;;;;;;;;;;;5093410;28;19924;-63
2022/09/02 07:20:17;;;;;;;;;;;;;;;;;;5092672;28;19924;-62
2022/09/02 07:22:45;;;;;;;;;;;;;;;;;;5092777;28;20439;-63
2022/09/02 07:25:12;;;;;;;;;;;;;;;;;;5092870;28;19935;-62
2022/09/02 07:27:39;;;;;;;;;;;;;;;;;;5093167;28;19930;-63
2022/09/02 07:30:06;;;;;;;;;;;;;;;;;;5092239;28;19924;-63
2022/09/02 07:32:33;;;;;;;;;;;;;;;;;;5092745;28;20018;-63
2022/09/02 07:35:00;;;;;;;;;;;;;;;;;;5092572;28;19932;-63
2022/09/02 07:37:27;;;;;;;;;;;;;;;;;;5092584;28;19924;-62
2022/09/02 07:39:55;;;;;;;;;;;;;;;;;;5092213;28;19998;-62
2022/09/02 07:42:22;;;;;;;;;;;;;;;;;;5092415;28;19924;-62
2022/09/02 07:44:48;;;;;;;;;;;;;;;;;;5092539;28;19977;-62
2022/09/02 07:47:17;;;;;;;;;;;;;;;;;;5092467;28;19977;-62
2022/09/02 07:49:44;;;;;;;;;;;;;;;;;;5092462;28;20350;-62
2022/09/02 07:52:11;;;;;;;;;;;;;;;;;;5092472;28;20396;-62
2022/09/02 07:54:37;;;;;;;;;;;;;;;;;;5092625;28;19924;-62
2022/09/02 07:57:06;;;;;;;;;;;;;;;;;;5092706;28;20380;-62
2022/09/02 07:59:32;;;;;;;;;;;;;;;;;;5092131;28;19975;-62
2022/09/02 08:02:02;;;;;;;;;;;;;;;;;;5081842;28;20400;-62
2022/09/02 08:04:31;;;;;;;;;;;;;;;;;;5072208;28;19986;-62
2022/09/02 08:06:58;;;;;;;;;;;;;;;;;;5072280;28;19967;-62
2022/09/02 08:09:24;;;;;;;;;;;;;;;;;;5071587;28;19931;-62
2022/09/02 08:11:51;;;;;;;;;;;;;;;;;;5072341;28;19932;-62
2022/09/02 08:14:23;;;;;;;;;;;;;;;;;;5072108;28;20062;-61
2022/09/02 08:16:50;;;;;;;;;;;;;;;;;;5072558;28;20014;-62
2022/09/02 08:19:16;;;;;;;;;;;;;;;;;;5071860;28;19975;-62
2022/09/02 08:21:43;;;;;;;;;;;;;;;;;;5072219;28;19934;-62
2022/09/02 08:24:09;;;;;;;;;;;;;;;;;;5071552;28;19978;-62
2022/09/02 08:26:36;;;;;;;;;;;;;;;;;;5071809;28;20281;-63
2022/09/02 08:29:03;;;;;;;;;;;;;;;;;;5071529;28;19982;-63
2022/09/02 08:31:31;;;;;;;;;;;;;;;;;;5072018;28;19947;-63
2022/09/02 08:33:58;;;;;;;;;;;;;;;;;;5071672;28;19925;-63
2022/09/02 08:36:25;;;;;;;;;;;;;;;;;;5071792;28;19929;-63
2022/09/02 08:38:52;;;;;;;;;;;;;;;;;;5071932;28;20294;-63
2022/09/02 08:41:21;;;;;;;;;;;;;;;;;;5071850;28;19931;-63
2022/09/02 08:43:49;;;;;;;;;;;;;;;;;;5071700;28;19928;-63
2022/09/02 08:46:24;;;;;;;;;;;;;;;;;;5072053;28;19947;-63
2022/09/02 08:48:54;;;;;;;;;;;;;;;;;;5071482;28;19939;-63
2022/09/02 08:51:23;;;;;;;;;;;;;;;;;;5071982;28;20277;-63
2022/09/02 08:53:52;;;;;;;;;;;;;;;;;;5071432;28;19924;-63
2022/09/02 08:56:19;;;;;;;;;;;;;;;;;;5072039;28;20407;-63
2022/09/02 08:58:48;;;;;;;;;;;;;;;;;;5071447;28;19924;-63
2022/09/02 09:01:20;;;;;;;;;;;;;;;;;;5076054;28;19924;-63
2022/09/02 09:03:57;;;;;;;;;;;;;;;;;;5091474;28;20367;-63
2022/09/02 09:06:30;;;;;;;;;;;;;;;;;;5091836;28;19989;-63
2022/09/02 09:09:00;;;;;;;;;;;;;;;;;;5091873;28;20311;-63
2022/09/02 09:11:33;;;;;;;;;;;;;;;;;;5091487;28;19977;-63
2022/09/02 09:14:14;;;;;;;;;;;;;;;;;;5091668;28;19973;-62
2022/09/02 09:16:42;;;;;;;;;;;;;;;;;;5089183;28;20338;-62
2022/09/02 09:19:11;;;;;;;;;;;;;;;;;;5091628;28;20274;-62
2022/09/02 09:21:40;;;;;;;;;;;;;;;;;;5095005;28;19923;-61
2022/09/02 09:24:09;;;;;;;;;;;;;;;;;;5095204;28;19953;-61
2022/09/02 09:26:36;;;;;;;;;;;;;;;;;;5095406;28;20395;-62
2022/09/02 09:29:04;;;;;;;;;;;;;;;;;;5094943;28;19984;-64
2022/09/02 09:31:31;;;;;;;;;;;;;;;;;;5095122;28;19928;-62
2022/09/02 09:33:58;;;;;;;;;;;;;;;;;;5095086;28;19924;-62
2022/09/02 09:36:43;;;;;;;;;;;;;;;;;;5095263;28;20006;-62
2022/09/02 09:39:18;;;;;;;;;;;;;;;;;;5094442;28;19940;-62
2022/09/02 09:41:45;;;;;;;;;;;;;;;;;;5094953;28;20404;-62
2022/09/02 09:44:28;;;;;;;;;;;;;;;;;;5094468;28;19964;-63
2022/09/02 09:47:00;;;;;;;;;;;;;;;;;;5094539;28;19932;-62
2022/09/02 09:49:26;;;;;;;;;;;;;;;;;;5094699;28;19932;-62
2022/09/02 09:51:56;;;;;;;;;;;;;;;;;;5094698;28;19928;-62
2022/09/02 09:54:26;;;;;;;;;;;;;;;;;;5094600;28;20045;-62
2022/09/02 09:56:52;;;;;;;;;;;;;;;;;;5094638;28;19981;-62
2022/09/02 09:59:34;;;;;;;;;;;;;;;;;;5094374;28;19924;-62
2022/09/02 10:02:01;;;;;;;;;;;;;;;;;;5083322;28;19925;-62
2022/09/02 10:04:28;;;;;;;;;;;;;;;;;;5074230;28;19932;-62
2022/09/02 10:06:55;;;;;;;;;;;;;;;;;;5074356;28;19924;-62
2022/09/02 10:09:33;;;;;;;;;;;;;;;;;;5073881;28;20324;-62
2022/09/02 10:12:01;;;;;;;;;;;;;;;;;;5073929;28;19925;-62
2022/09/02 10:14:32;;;;;;;;;;;;;;;;;;5074417;28;19932;-62
2022/09/02 10:17:04;;;;;;;;;;;;;;;;;;5074289;28;19977;-62
2022/09/02 10:19:33;;;;;;;;;;;;;;;;;;5073682;28;19924;-62
2022/09/02 10:22:18;;;;;;;;;;;;;;;;;;5074187;28;19925;-62
2022/09/02 10:24:54;;;;;;;;;;;;;;;;;;5073439;28;19931;-62
2022/09/02 10:27:24;;;;;;;;;;;;;;;;;;5074025;28;20043;-62
2022/09/02 10:29:54;;;;;;;;;;;;;;;;;;5073443;28;19925;-62
2022/09/02 10:32:35;;;;;;;;;;;;;;;;;;5073808;28;19924;-62
2022/09/02 10:35:10;;;;;;;;;;;;;;;;;;5071156;28;19970;-62
2022/09/02 10:37:43;;;;;;;;;;;;;;;;;;5073391;28;19928;-62
2022/09/02 10:40:13;;;;;;;;;;;;;;;;;;5073218;28;19924;-62
2022/09/02 10:42:45;;;;;;;;;;;;;;;;;;5073477;28;20015;-62
2022/09/02 10:45:16;;;;;;;;;;;;;;;;;;5073435;28;19977;-62
2022/09/02 10:47:44;;;;;;;;;;;;;;;;;;5073851;28;19924;-63
2022/09/02 10:50:21;;;;;;;;;;;;;;;;;;5073123;28;20085;-62
2022/09/02 10:52:58;;;;;;;;;;;;;;;;;;5073826;28;20354;-62
2022/09/02 10:55:36;;;;;;;;;;;;;;;;;;5073610;28;19931;-63
2022/09/02 10:58:04;;;;;;;;;;;;;;;;;;5073142;28;20042;-63
2022/09/02 11:00:31;;;;;;;;;;;;;;;;;;5073191;28;19924;-63
2022/09/02 11:03:04;;;;;;;;;;;;;;;;;;5092007;28;19985;-62
2022/09/02 11:05:43;;;;;;;;;;;;;;;;;;5093343;28;19924;-63
2022/09/02 11:08:12;;;;;;;;;;;;;;;;;;5093334;28;19924;-63
2022/09/02 11:10:43;;;;;;;;;;;;;;;;;;5092946;28;19924;-62
2022/09/02 11:13:14;;;;;;;;;;;;;;;;;;5093203;28;20384;-63
2022/09/02 11:15:45;;;;;;;;;;;;;;;;;;5093119;28;19993;-62
2022/09/02 11:18:16;;;;;;;;;;;;;;;;;;5092965;28;19931;-63
2022/09/02 11:20:46;;;;;;;;;;;;;;;;;;5092630;28;20105;-63
2022/09/02 11:23:16;;;;;;;;;;;;;;;;;;5092967;28;19924;-63
2022/09/02 11:25:47;;;;;;;;;;;;;;;;;;5092953;28;20313;-63
2022/09/02 11:28:23;;;;;;;;;;;;;;;;;;5093321;28;19925;-63
2022/09/02 11:30:56;;;;;;;;;;;;;;;;;;5092486;28;19924;-62
2022/09/02 11:33:25;;;;;;;;;;;;;;;;;;5092802;28;20344;-62
2022/09/02 11:35:52;;;;;;;;;;;;;;;;;;5092572;28;19928;-63
2022/09/02 11:38:32;;;;;;;;;;;;;;;;;;5092367;28;19924;-63
2022/09/02 11:41:08;;;;;;;;;;;;;;;;;;5092417;28;19925;-62
2022/09/02 11:43:37;;;;;;;;;;;;;;;;;;5091858;28;20044;-63
2022/09/02 11:46:26;;;;;;;;;;;;;;;;;;5092559;28;19924;-63
2022/09/02 11:49:11;;;;;;;;;;;;;;;;;;5092752;28;19946;-63
2022/09/02 11:51:53;;;;;;;;;;;;;;;;;;5052151;28;19982;-63
2022/09/02 11:54:20;;;;;;;;;;;;;;;;;;5092462;28;19924;-63
2022/09/02 11:56:50;;;;;;;;;;;;;;;;;;5092159;28;19931;-62
2022/09/02 11:59:20;;;;;;;;;;;;;;;;;;5092164;28;19928;-63
2022/09/02 12:01:48;;;;;;;;;;;;;;;;;;5083278;28;19924;-62
2022/09/02 12:04:19;;;;;;;;;;;;;;;;;;5071944;28;19944;-63
2022/09/02 12:07:01;;;;;;;;;;;;;;;;;;5072137;28;19982;-63
2022/09/02 12:09:42;;;;;;;;;;;;;;;;;;5071455;28;20641;-63
2022/09/02 12:12:30;;;;;;;;;;;;;;;;;;5072552;28;19924;-62
2022/09/02 12:15:06;;;;;;;;;;;;;;;;;;5072068;28;20316;-62
2022/09/02 12:17:36;;;;;;;;;;;;;;;;;;5072405;28;19924;-63
2022/09/02 12:20:03;;;;;;;;;;;;;;;;;;5072186;28;19925;-63
2022/09/02 12:22:37;;;;;;;;;;;;;;;;;;5072287;28;20357;-63
2022/09/02 12:25:04;;;;;;;;;;;;;;;;;;5071930;28;20274;-62
2022/09/02 12:27:35;;;;;;;;;;;;;;;;;;5072087;28;19929;-62
2022/09/02 12:30:03;;;;;;;;;;;;;;;;;;5071960;28;19980;-63
2022/09/02 12:33:01;;;;;;;;;;;;;;;;;;5072168;28;20373;-63
2022/09/02 12:35:33;;;;;;;;;;;;;;;;;;5071820;28;19972;-63
2022/09/02 12:38:15;;;;;;;;;;;;;;;;;;5071609;28;19925;-63
2022/09/02 12:40:50;;;;;;;;;;;;;;;;;;5071683;28;19974;-63
2022/09/02 12:43:24;;;;;;;;;;;;;;;;;;5071703;28;19929;-63
2022/09/02 12:45:54;;;;;;;;;;;;;;;;;;5072143;28;20028;-63
2022/09/02 12:48:24;;;;;;;;;;;;;;;;;;5072245;28;19986;-62
2022/09/02 12:50:53;;;;;;;;;;;;;;;;;;5071519;28;19928;-63
2022/09/02 12:53:30;;;;;;;;;;;;;;;;;;5071997;28;20370;-62
2022/09/02 12:55:57;;;;;;;;;;;;;;;;;;5075435;28;19931;-63
2022/09/02 12:58:26;;;;;;;;;;;;;;;;;;5075418;28;19975;-63
2022/09/02 13:00:57;;;;;;;;;;;;;;;;;;5076730;28;19928;-63
2022/09/02 13:03:39;;;;;;;;;;;;;;;;;;5095608;28;19985;-63
2022/09/02 13:06:11;;;;;;;;;;;;;;;;;;5095626;28;19932;-63
2022/09/02 13:09:09;;;;;;;;;;;;;;;;;;5095657;28;19924;-63
2022/09/02 13:11:50;;;;;;;;;;;;;;;;;;5095647;28;19969;-63
2022/09/02 13:14:44;;;;;;;;;;;;;;;;;;5092849;28;19932;-62
2022/09/02 13:17:21;;;;;;;;;;;;;;;;;;5095481;28;19931;-63
2022/09/02 13:19:54;;;;;;;;;;;;;;;;;;5095382;28;19985;-63
2022/09/02 13:22:31;;;;;;;;;;;;;;;;;;5095152;28;19954;-64
2022/09/02 13:25:17;;;;;;;;;;;;;;;;;;5094966;28;19931;-63
2022/09/02 13:28:01;;;;;;;;;;;;;;;;;;5095402;28;19924;-62
2022/09/02 13:30:35;;;;;;;;;;;;;;;;;;5084662;28;20056;-61
2022/09/02 13:33:05;;;;;;;;;;;;;;;;;;5095134;28;19928;-62
2022/09/02 13:35:37;;;;;;;;;;;;;;;;;;5095397;28;19928;-62
2022/09/02 13:38:05;;;;;;;;;;;;;;;;;;5095145;28;20369;-62
2022/09/02 13:40:33;;;;;;;;;;;;;;;;;;5094892;28;20399;-63
2022/09/02 13:43:02;;;;;;;;;;;;;;;;;;5095165;28;19974;-63
2022/09/02 13:45:29;;;;;;;;;;;;;;;;;;5094814;28;19924;-62
2022/09/02 13:47:57;;;;;;;;;;;;;;;;;;5094982;28;19927;-63
2022/09/02 13:50:26;;;;;;;;;;;;;;;;;;5094437;28;19969;-63
2022/09/02 13:52:54;;;;;;;;;;;;;;;;;;5094493;28;19935;-63
2022/09/02 13:55:21;;;;;;;;;;;;;;;;;;5094808;28;19931;-63
2022/09/02 13:57:52;;;;;;;;;;;;;;;;;;5094846;28;19935;-62
2022/09/02 14:00:26;;;;;;;;;;;;;;;;;;5094291;28;19931;-62
2022/09/02 14:03:05;;;;;;;;;;;;;;;;;;5076367;28;20375;-62
2022/09/02 14:05:35;;;;;;;;;;;;;;;;;;5073532;28;19932;-62
2022/09/02 14:08:03;;;;;;;;;;;;;;;;;;5074160;28;19932;-62
2022/09/02 14:10:30;;;;;;;;;;;;;;;;;;5073928;28;20040;-62
2022/09/02 14:12:57;;;;;;;;;;;;;;;;;;5074458;28;20432;-63
2022/09/02 14:15:25;;;;;;;;;;;;;;;;;;5074252;28;19930;-62
2022/09/02 14:18:06;;;;;;;;;;;;;;;;;;5074262;28;19925;-62
2022/09/02 14:20:35;;;;;;;;;;;;;;;;;;5073714;28;19928;-62
2022/09/02 14:23:01;;;;;;;;;;;;;;;;;;5073838;28;19928;-62
2022/09/02 14:25:32;;;;;;;;;;;;;;;;;;5074017;28;19970;-62
2022/09/02 14:28:00;;;;;;;;;;;;;;;;;;5073888;28;19929;-62
2022/09/02 14:30:29;;;;;;;;;;;;;;;;;;5073555;28;20007;-63
2022/09/02 14:33:11;;;;;;;;;;;;;;;;;;5073641;28;19924;-62
2022/09/02 14:35:39;;;;;;;;;;;;;;;;;;5073507;28;19925;-62
2022/09/02 14:38:05;;;;;;;;;;;;;;;;;;5073597;28;19931;-62
2022/09/02 14:40:33;;;;;;;;;;;;;;;;;;5073430;28;20014;-61
2022/09/02 14:43:00;;;;;;;;;;;;;;;;;;5073740;28;20319;-62
2022/09/02 14:45:28;;;;;;;;;;;;;;;;;;5073422;28;20424;-62
2022/09/02 14:47:56;;;;;;;;;;;;;;;;;;5073452;28;20396;-62
2022/09/02 14:50:25;;;;;;;;;;;;;;;;;;5073280;28;20392;-62
2022/09/02 14:52:55;;;;;;;;;;;;;;;;;;5073573;28;19925;-62
2022/09/02 14:55:44;;;;;;;;;;;;;;;;;;5073564;28;19924;-62
2022/09/02 14:58:10;;;;;;;;;;;;;;;;;;5073292;28;19931;-62
2022/09/02 15:00:38;;;;;;;;;;;;;;;;;;5072879;28;20393;-63
2022/09/02 15:03:05;;;;;;;;;;;;;;;;;;5093421;28;20381;-61
2022/09/02 15:05:32;;;;;;;;;;;;;;;;;;5093541;28;20385;-61
2022/09/02 15:08:00;;;;;;;;;;;;;;;;;;5093379;28;20518;-62
2022/09/02 15:10:27;;;;;;;;;;;;;;;;;;5093018;28;20124;-62
2022/09/02 15:12:56;;;;;;;;;;;;;;;;;;5093250;28;20368;-62
2022/09/02 15:15:23;;;;;;;;;;;;;;;;;;5093507;28;20373;-62
2022/09/02 15:17:49;;;;;;;;;;;;;;;;;;5093256;28;20266;-62
2022/09/02 15:20:16;;;;;;;;;;;;;;;;;;5092822;28;19927;-62
2022/09/02 15:22:43;;;;;;;;;;;;;;;;;;5093069;28;19969;-62
2022/09/02 15:25:11;;;;;;;;;;;;;;;;;;5092963;28;20017;-62
2022/09/02 15:27:38;;;;;;;;;;;;;;;;;;5092955;28;19971;-61
2022/09/02 15:30:05;;;;;;;;;;;;;;;;;;5092613;28;20323;-61
2022/09/02 15:32:31;;;;;;;;;;;;;;;;;;5092899;28;20554;-62
2022/09/02 15:34:58;;;;;;;;;;;;;;;;;;5092979;28;19932;-62
2022/09/02 15:37:26;;;;;;;;;;;;;;;;;;5092721;28;20025;-62
2022/09/02 15:39:52;;;;;;;;;;;;;;;;;;5092882;28;19928;-62
2022/09/02 15:42:20;;;;;;;;;;;;;;;;;;5092753;28;19993;-62
2022/09/02 15:44:47;;;;;;;;;;;;;;;;;;5092672;28;19932;-62
2022/09/02 15:47:14;;;;;;;;;;;;;;;;;;5092931;28;19977;-62
2022/09/02 15:49:40;;;;;;;;;;;;;;;;;;5092496;28;19931;-62
2022/09/02 15:52:07;;;;;;;;;;;;;;;;;;5092585;28;19924;-62
2022/09/02 15:54:33;;;;;;;;;;;;;;;;;;5092554;28;19928;-62
2022/09/02 15:57:00;;;;;;;;;;;;;;;;;;5092644;28;19978;-62
2022/09/02 15:59:28;;;;;;;;;;;;;;;;;;5092400;28;19924;-62
2022/09/02 16:01:55;;;;;;;;;;;;;;;;;;5082402;28;19924;-62
2022/09/02 16:04:22;;;;;;;;;;;;;;;;;;5072269;28;19925;-62
2022/09/02 16:06:51;;;;;;;;;;;;;;;;;;5072315;28;19936;-62
2022/09/02 16:09:18;;;;;;;;;;;;;;;;;;5072001;28;19924;-62
2022/09/02 16:11:46;;;;;;;;;;;;;;;;;;5072453;28;19924;-61
2022/09/02 16:14:13;;;;;;;;;;;;;;;;;;5072432;28;20393;-63
2022/09/02 16:16:41;;;;;;;;;;;;;;;;;;5072109;28;20035;-63
2022/09/02 16:19:09;;;;;;;;;;;;;;;;;;5071838;28;19928;-62
2022/09/02 16:21:37;;;;;;;;;;;;;;;;;;5072449;28;20382;-63
2022/09/02 16:24:04;;;;;;;;;;;;;;;;;;5072177;28;19932;-63
2022/09/02 16:26:32;;;;;;;;;;;;;;;;;;5072065;28;20381;-63
2022/09/02 16:28:59;;;;;;;;;;;;;;;;;;5072847;28;20396;-63
2022/09/02 16:31:27;;;;;;;;;;;;;;;;;;5076134;28;20459;-62
2022/09/02 16:33:55;;;;;;;;;;;;;;;;;;5075934;28;19982;-62
2022/09/02 16:36:22;;;;;;;;;;;;;;;;;;5076166;28;20385;-62
2022/09/02 16:38:49;;;;;;;;;;;;;;;;;;5076145;28;20316;-63
2022/09/02 16:41:26;;;;;;;;;;;;;;;;;;5075939;28;19925;-63
2022/09/02 16:43:52;;;;;;;;;;;;;;;;;;5076176;28;19925;-63
2022/09/02 16:46:19;;;;;;;;;;;;;;;;;;5075933;28;19924;-62
2022/09/02 16:48:46;;;;;;;;;;;;;;;;;;5075849;28;19929;-62
2022/09/02 16:51:14;;;;;;;;;;;;;;;;;;5075605;28;20274;-63
2022/09/02 16:53:40;;;;;;;;;;;;;;;;;;5075753;28;20023;-63
2022/09/02 16:56:11;;;;;;;;;;;;;;;;;;5075939;28;19939;-63
2022/09/02 16:58:37;;;;;;;;;;;;;;;;;;5075761;28;19924;-63
2022/09/02 17:01:05;;;;;;;;;;;;;;;;;;5078299;28;19924;-62